createdAt,value
2022-11-22T00:00:00.217Z,25.19
2022-11-22T00:00:10.224Z,25.19
2022-11-22T00:00:20.259Z,25.19
2022-11-22T00:00:30.245Z,25.19
2022-11-22T00:00:40.243Z,25.20
2022-11-22T00:00:50.363Z,25.20
2022-11-22T00:01:00.625Z,25.20
2022-11-22T00:01:10.658Z,25.20
2022-11-22T00:01:20.665Z,25.19
2022-11-22T00:01:30.660Z,25.20
2022-11-22T00:01:40.752Z,25.20
2022-11-22T00:01:50.821Z,25.21
2022-11-22T00:02:00.869Z,25.21
2022-11-22T00:02:10.930Z,25.20
2022-11-22T00:02:21.029Z,25.22
2022-11-22T00:02:30.994Z,25.21
2022-11-22T00:02:41.308Z,25.22
2022-11-22T00:02:51.427Z,25.21
2022-11-22T00:03:01.431Z,25.21
2022-11-22T00:03:11.696Z,25.22
2022-11-22T00:03:21.709Z,25.22
2022-11-22T00:03:31.722Z,25.21
2022-11-22T00:03:41.732Z,25.21
2022-11-22T00:03:51.752Z,25.21
2022-11-22T00:04:01.751Z,25.21
2022-11-22T00:04:11.766Z,25.21
2022-11-22T00:04:21.772Z,25.21
2022-11-22T00:04:31.778Z,25.22
2022-11-22T00:04:41.790Z,25.22
2022-11-22T00:04:51.801Z,25.22
2022-11-22T00:05:01.839Z,25.22
2022-11-22T00:05:11.823Z,25.22
2022-11-22T00:05:21.881Z,25.22
2022-11-22T00:05:31.876Z,25.22
2022-11-22T00:05:41.890Z,25.22
2022-11-22T00:05:51.894Z,25.22
2022-11-22T00:06:01.907Z,25.22
2022-11-22T00:06:11.916Z,25.22
2022-11-22T00:06:21.930Z,25.21
2022-11-22T00:06:31.935Z,25.22
2022-11-22T00:06:41.945Z,25.21
2022-11-22T00:06:51.955Z,25.21
2022-11-22T00:07:02.076Z,25.21
2022-11-22T00:07:12.414Z,25.21
2022-11-22T00:07:22.499Z,25.21
2022-11-22T00:07:32.616Z,25.21
2022-11-22T00:07:42.588Z,25.21
2022-11-22T00:07:52.628Z,25.21
2022-11-22T00:08:02.652Z,25.20
2022-11-22T00:08:12.776Z,25.21
2022-11-22T00:08:22.783Z,25.21
2022-11-22T00:08:32.804Z,25.21
2022-11-22T00:08:42.801Z,25.21
2022-11-22T00:08:53.051Z,25.21
2022-11-22T00:09:03.054Z,25.22
2022-11-22T00:09:13.064Z,25.22
2022-11-22T00:09:23.074Z,25.22
2022-11-22T00:09:33.087Z,25.21
2022-11-22T00:09:43.089Z,25.21
2022-11-22T00:09:53.104Z,25.21
2022-11-22T00:10:03.114Z,25.21
2022-11-22T00:10:13.121Z,25.22
2022-11-22T00:10:23.121Z,25.21
2022-11-22T00:10:33.499Z,25.21
2022-11-22T00:10:43.502Z,25.21
2022-11-22T00:10:53.620Z,25.21
2022-11-22T00:11:03.880Z,25.21
2022-11-22T00:11:13.884Z,25.21
2022-11-22T00:11:23.884Z,25.20
2022-11-22T00:11:33.893Z,25.21
2022-11-22T00:11:43.896Z,25.21
2022-11-22T00:11:53.906Z,25.21
2022-11-22T00:12:03.931Z,25.21
2022-11-22T00:12:13.941Z,25.21
2022-11-22T00:12:23.942Z,25.21
2022-11-22T00:12:34.090Z,25.21
2022-11-22T00:12:44.358Z,25.22
2022-11-22T00:12:54.354Z,25.21
2022-11-22T00:13:04.349Z,25.21
2022-11-22T00:13:14.353Z,25.21
2022-11-22T00:13:24.361Z,25.21
2022-11-22T00:13:34.494Z,25.22
2022-11-22T00:13:44.494Z,25.21
2022-11-22T00:13:54.618Z,25.22
2022-11-22T00:14:04.621Z,25.22
2022-11-22T00:14:14.750Z,25.22
2022-11-22T00:14:24.750Z,25.21
2022-11-22T00:14:34.888Z,25.22
2022-11-22T00:14:44.887Z,25.22
2022-11-22T00:14:56.993Z,25.22
2022-11-22T00:15:05.278Z,25.21
2022-11-22T00:15:15.399Z,25.22
2022-11-22T00:15:25.532Z,25.22
2022-11-22T00:15:35.547Z,25.21
2022-11-22T00:15:45.550Z,25.22
2022-11-22T00:15:55.565Z,25.22
2022-11-22T00:16:05.579Z,25.22
2022-11-22T00:16:15.586Z,25.22
2022-11-22T00:16:25.605Z,25.22
2022-11-22T00:16:35.615Z,25.22
2022-11-22T00:16:45.615Z,25.22
2022-11-22T00:16:55.632Z,25.22
2022-11-22T00:17:05.638Z,25.23
2022-11-22T00:17:15.655Z,25.23
2022-11-22T00:17:25.655Z,25.23
2022-11-22T00:17:35.670Z,25.23
2022-11-22T00:17:45.676Z,25.23
2022-11-22T00:17:55.680Z,25.23
2022-11-22T00:18:05.701Z,25.24
2022-11-22T00:18:15.705Z,25.24
2022-11-22T00:18:25.715Z,25.23
2022-11-22T00:18:35.731Z,25.24
2022-11-22T00:18:45.723Z,25.24
2022-11-22T00:18:55.849Z,25.24
2022-11-22T00:19:05.873Z,25.25
2022-11-22T00:19:15.873Z,25.24
2022-11-22T00:19:26.141Z,25.24
2022-11-22T00:19:36.256Z,25.25
2022-11-22T00:19:46.268Z,25.25
2022-11-22T00:19:56.531Z,25.24
2022-11-22T00:20:06.603Z,25.24
2022-11-22T00:20:16.575Z,25.24
2022-11-22T00:20:26.581Z,25.24
2022-11-22T00:20:36.706Z,25.24
2022-11-22T00:20:46.709Z,25.23
2022-11-22T00:20:56.845Z,25.23
2022-11-22T00:21:06.855Z,25.23
2022-11-22T00:21:16.973Z,25.23
2022-11-22T00:21:26.974Z,25.22
2022-11-22T00:21:37.115Z,25.23
2022-11-22T00:21:47.117Z,25.23
2022-11-22T00:21:57.123Z,25.23
2022-11-22T00:22:07.393Z,25.22
2022-11-22T00:22:17.514Z,25.22
2022-11-22T00:22:27.514Z,25.22
2022-11-22T00:22:43.995Z,25.23
2022-11-22T00:22:47.773Z,25.17
2022-11-22T00:22:57.785Z,25.20
2022-11-22T00:23:07.787Z,25.20
2022-11-22T00:23:17.792Z,25.21
2022-11-22T00:23:27.794Z,25.21
2022-11-22T00:23:37.917Z,25.22
2022-11-22T00:23:47.928Z,25.22
2022-11-22T00:23:57.947Z,25.21
2022-11-22T00:24:07.957Z,25.21
2022-11-22T00:24:17.963Z,25.22
2022-11-22T00:24:27.970Z,25.22
2022-11-22T00:24:37.982Z,25.22
2022-11-22T00:24:47.995Z,25.22
2022-11-22T00:24:58.123Z,25.22
2022-11-22T00:25:08.131Z,25.22
2022-11-22T00:25:18.388Z,25.22
2022-11-22T00:25:28.507Z,25.22
2022-11-22T00:25:38.514Z,25.23
2022-11-22T00:25:48.803Z,25.23
2022-11-22T00:25:58.799Z,25.23
2022-11-22T00:26:08.919Z,25.23
2022-11-22T00:26:19.180Z,25.23
2022-11-22T00:26:29.296Z,25.23
2022-11-22T00:26:39.307Z,25.23
2022-11-22T00:26:49.565Z,25.23
2022-11-22T00:26:59.565Z,25.24
2022-11-22T00:27:09.574Z,25.24
2022-11-22T00:27:19.584Z,25.23
2022-11-22T00:27:29.611Z,25.23
2022-11-22T00:27:39.608Z,25.23
2022-11-22T00:27:49.614Z,25.23
2022-11-22T00:27:59.620Z,25.23
2022-11-22T00:28:09.628Z,25.24
2022-11-22T00:28:19.638Z,25.23
2022-11-22T00:28:29.633Z,25.24
2022-11-22T00:28:39.638Z,25.24
2022-11-22T00:28:49.768Z,25.23
2022-11-22T00:28:59.779Z,25.24
2022-11-22T00:29:09.794Z,25.24
2022-11-22T00:29:19.803Z,25.24
2022-11-22T00:29:30.029Z,25.23
2022-11-22T00:29:40.060Z,25.23
2022-11-22T00:29:50.179Z,25.23
2022-11-22T00:30:00.178Z,25.24
2022-11-22T00:30:10.455Z,25.23
2022-11-22T00:30:20.457Z,25.24
2022-11-22T00:30:30.599Z,25.23
2022-11-22T00:30:40.858Z,25.23
2022-11-22T00:30:50.862Z,25.23
2022-11-22T00:31:00.884Z,25.23
2022-11-22T00:31:10.876Z,25.23
2022-11-22T00:31:20.885Z,25.23
2022-11-22T00:31:30.901Z,25.23
2022-11-22T00:31:40.995Z,25.23
2022-11-22T00:31:51.002Z,25.23
2022-11-22T00:32:01.007Z,25.24
2022-11-22T00:32:11.017Z,25.24
2022-11-22T00:32:21.018Z,25.24
2022-11-22T00:32:31.143Z,25.25
2022-11-22T00:32:41.166Z,25.25
2022-11-22T00:32:51.185Z,25.25
2022-11-22T00:33:01.189Z,25.25
2022-11-22T00:33:11.206Z,25.25
2022-11-22T00:33:21.206Z,25.26
2022-11-22T00:33:31.469Z,25.25
2022-11-22T00:33:41.472Z,25.25
2022-11-22T00:33:51.478Z,25.25
2022-11-22T00:34:01.481Z,25.25
2022-11-22T00:34:11.506Z,25.25
2022-11-22T00:34:21.504Z,25.25
2022-11-22T00:34:31.624Z,25.25
2022-11-22T00:34:41.629Z,25.26
2022-11-22T00:34:51.778Z,25.26
2022-11-22T00:35:01.756Z,25.26
2022-11-22T00:35:11.921Z,25.26
2022-11-22T00:35:21.913Z,25.26
2022-11-22T00:35:32.030Z,25.27
2022-11-22T00:35:42.300Z,25.26
2022-11-22T00:35:52.424Z,25.26
2022-11-22T00:36:02.422Z,25.26
2022-11-22T00:36:12.670Z,25.25
2022-11-22T00:36:22.683Z,25.26
2022-11-22T00:36:32.710Z,25.26
2022-11-22T00:36:42.707Z,25.26
2022-11-22T00:36:52.715Z,25.26
2022-11-22T00:37:02.775Z,25.26
2022-11-22T00:37:12.768Z,25.26
2022-11-22T00:37:22.784Z,25.26
2022-11-22T00:37:32.793Z,25.25
2022-11-22T00:37:42.797Z,25.25
2022-11-22T00:37:52.791Z,25.25
2022-11-22T00:38:02.802Z,25.25
2022-11-22T00:38:12.801Z,25.25
2022-11-22T00:38:22.804Z,25.25
2022-11-22T00:38:32.822Z,25.25
2022-11-22T00:38:42.826Z,25.25
2022-11-22T00:38:52.835Z,25.25
2022-11-22T00:39:02.834Z,25.26
2022-11-22T00:39:12.962Z,25.26
2022-11-22T00:39:22.960Z,25.27
2022-11-22T00:39:33.183Z,25.26
2022-11-22T00:39:43.063Z,25.27
2022-11-22T00:39:53.182Z,25.26
2022-11-22T00:40:03.193Z,25.27
2022-11-22T00:40:13.322Z,25.26
2022-11-22T00:40:23.320Z,25.27
2022-11-22T00:40:33.332Z,25.27
2022-11-22T00:40:43.344Z,25.27
2022-11-22T00:40:53.353Z,25.27
2022-11-22T00:41:03.365Z,25.27
2022-11-22T00:41:13.367Z,25.27
2022-11-22T00:41:23.383Z,25.28
2022-11-22T00:41:33.389Z,25.28
2022-11-22T00:41:43.396Z,25.28
2022-11-22T00:41:53.412Z,25.28
2022-11-22T00:42:03.429Z,25.28
2022-11-22T00:42:13.451Z,25.28
2022-11-22T00:42:23.453Z,25.28
2022-11-22T00:42:33.470Z,25.28
2022-11-22T00:42:43.471Z,25.27
2022-11-22T00:42:53.478Z,25.27
2022-11-22T00:43:03.479Z,25.27
2022-11-22T00:43:13.504Z,25.27
2022-11-22T00:43:23.510Z,25.28
2022-11-22T00:43:33.513Z,25.28
2022-11-22T00:43:43.532Z,25.29
2022-11-22T00:43:53.540Z,25.28
2022-11-22T00:44:03.541Z,25.28
2022-11-22T00:44:13.550Z,25.28
2022-11-22T00:44:23.583Z,25.28
2022-11-22T00:44:33.575Z,25.28
2022-11-22T00:44:43.576Z,25.28
2022-11-22T00:44:53.701Z,25.27
2022-11-22T00:45:03.702Z,25.28
2022-11-22T00:45:13.714Z,25.29
2022-11-22T00:45:23.982Z,25.28
2022-11-22T00:45:34.005Z,25.28
2022-11-22T00:45:44.006Z,25.27
2022-11-22T00:45:54.387Z,25.28
2022-11-22T00:46:04.398Z,25.28
2022-11-22T00:46:14.391Z,25.28
2022-11-22T00:46:24.392Z,25.28
2022-11-22T00:46:34.399Z,25.28
2022-11-22T00:46:44.403Z,25.28
2022-11-22T00:46:54.416Z,25.29
2022-11-22T00:47:04.436Z,25.29
2022-11-22T00:47:14.438Z,25.29
2022-11-22T00:47:24.441Z,25.28
2022-11-22T00:47:34.453Z,25.28
2022-11-22T00:47:44.469Z,25.29
2022-11-22T00:47:54.582Z,25.29
2022-11-22T00:48:04.591Z,25.30
2022-11-22T00:48:14.599Z,25.29
2022-11-22T00:48:24.605Z,25.29
2022-11-22T00:48:34.612Z,25.29
2022-11-22T00:48:44.880Z,25.31
2022-11-22T00:48:55.006Z,25.30
2022-11-22T00:49:05.106Z,25.31
2022-11-22T00:49:15.241Z,25.31
2022-11-22T00:49:25.251Z,25.32
2022-11-22T00:49:35.258Z,25.32
2022-11-22T00:49:45.259Z,25.32
2022-11-22T00:49:55.382Z,25.32
2022-11-22T00:50:05.385Z,25.32
2022-11-22T00:50:15.532Z,25.32
2022-11-22T00:50:25.573Z,25.33
2022-11-22T00:50:35.695Z,25.32
2022-11-22T00:50:45.697Z,25.32
2022-11-22T00:50:55.707Z,25.32
2022-11-22T00:51:05.705Z,25.32
2022-11-22T00:51:15.709Z,25.31
2022-11-22T00:51:25.722Z,25.31
2022-11-22T00:51:35.731Z,25.31
2022-11-22T00:51:45.742Z,25.31
2022-11-22T00:51:55.732Z,25.30
2022-11-22T00:52:05.738Z,25.31
2022-11-22T00:52:15.876Z,25.31
2022-11-22T00:52:25.881Z,25.31
2022-11-22T00:52:36.136Z,25.31
2022-11-22T00:52:46.140Z,25.31
2022-11-22T00:52:56.140Z,25.31
2022-11-22T00:53:06.141Z,25.32
2022-11-22T00:53:16.150Z,25.31
2022-11-22T00:53:26.159Z,25.32
2022-11-22T00:53:36.165Z,25.32
2022-11-22T00:53:46.165Z,25.32
2022-11-22T00:53:56.171Z,25.31
2022-11-22T00:54:06.179Z,25.31
2022-11-22T00:54:16.559Z,25.32
2022-11-22T00:54:26.564Z,25.32
2022-11-22T00:54:36.580Z,25.32
2022-11-22T00:54:51.449Z,25.32
2022-11-22T00:54:56.706Z,25.25
2022-11-22T00:55:06.706Z,25.28
2022-11-22T00:55:16.714Z,25.29
2022-11-22T00:55:26.724Z,25.29
2022-11-22T00:55:36.739Z,25.29
2022-11-22T00:55:46.745Z,25.30
2022-11-22T00:55:56.757Z,25.30
2022-11-22T00:56:06.766Z,25.30
2022-11-22T00:56:16.788Z,25.30
2022-11-22T00:56:26.783Z,25.29
2022-11-22T00:56:36.793Z,25.30
2022-11-22T00:56:46.792Z,25.29
2022-11-22T00:56:56.826Z,25.30
2022-11-22T00:57:06.822Z,25.30
2022-11-22T00:57:16.837Z,25.32
2022-11-22T00:57:26.845Z,25.32
2022-11-22T00:57:36.872Z,25.32
2022-11-22T00:57:46.868Z,25.32
2022-11-22T00:57:56.897Z,25.32
2022-11-22T00:58:06.919Z,25.31
2022-11-22T00:58:16.929Z,25.31
2022-11-22T00:58:26.936Z,25.31
2022-11-22T00:58:36.928Z,25.31
2022-11-22T00:58:46.941Z,25.30
2022-11-22T00:58:57.067Z,25.31
2022-11-22T00:59:07.082Z,25.30
2022-11-22T00:59:17.095Z,25.31
2022-11-22T00:59:27.417Z,25.31
2022-11-22T00:59:37.191Z,25.31
2022-11-22T00:59:47.320Z,25.31
2022-11-22T00:59:57.458Z,25.31
2022-11-22T01:00:07.454Z,25.30
2022-11-22T01:00:17.717Z,25.30
2022-11-22T01:00:27.732Z,25.30
2022-11-22T01:00:37.827Z,25.30
2022-11-22T01:00:52.103Z,25.30
2022-11-22T01:00:58.302Z,25.26
2022-11-22T01:01:08.417Z,25.27
2022-11-22T01:01:18.556Z,25.28
2022-11-22T01:01:28.520Z,25.28
2022-11-22T01:01:38.471Z,25.28
2022-11-22T01:01:48.565Z,25.28
2022-11-22T01:01:58.569Z,25.28
2022-11-22T01:02:08.572Z,25.28
2022-11-22T01:02:18.948Z,25.29
2022-11-22T01:02:28.951Z,25.29
2022-11-22T01:02:39.092Z,25.29
2022-11-22T01:02:49.346Z,25.29
2022-11-22T01:02:59.347Z,25.29
2022-11-22T01:03:09.357Z,25.29
2022-11-22T01:03:19.349Z,25.30
2022-11-22T01:03:29.374Z,25.28
2022-11-22T01:03:39.396Z,25.30
2022-11-22T01:03:49.388Z,25.30
2022-11-22T01:03:59.408Z,25.30
2022-11-22T01:04:09.398Z,25.29
2022-11-22T01:04:19.518Z,25.29
2022-11-22T01:04:29.776Z,25.30
2022-11-22T01:04:39.910Z,25.30
2022-11-22T01:04:49.919Z,25.31
2022-11-22T01:05:00.170Z,25.30
2022-11-22T01:05:10.173Z,25.31
2022-11-22T01:05:20.207Z,25.31
2022-11-22T01:05:30.175Z,25.30
2022-11-22T01:05:40.298Z,25.30
2022-11-22T01:05:50.297Z,25.31
2022-11-22T01:06:00.306Z,25.30
2022-11-22T01:06:10.325Z,25.30
2022-11-22T01:06:20.446Z,25.31
2022-11-22T01:06:30.447Z,25.30
2022-11-22T01:06:40.599Z,25.30
2022-11-22T01:06:50.597Z,25.31
2022-11-22T01:07:00.719Z,25.30
2022-11-22T01:07:11.052Z,25.30
2022-11-22T01:07:21.116Z,25.31
2022-11-22T01:07:31.166Z,25.29
2022-11-22T01:07:41.363Z,25.30
2022-11-22T01:07:51.311Z,25.29
2022-11-22T01:08:01.340Z,25.29
2022-11-22T01:08:11.455Z,25.29
2022-11-22T01:08:21.461Z,25.29
2022-11-22T01:08:31.582Z,25.29
2022-11-22T01:08:41.585Z,25.30
2022-11-22T01:08:51.838Z,25.30
2022-11-22T01:09:01.855Z,25.30
2022-11-22T01:09:11.861Z,25.31
2022-11-22T01:09:21.857Z,25.32
2022-11-22T01:09:32.273Z,25.31
2022-11-22T01:09:41.973Z,25.31
2022-11-22T01:09:51.989Z,25.31
2022-11-22T01:10:02.006Z,25.31
2022-11-22T01:10:11.999Z,25.31
2022-11-22T01:10:22.032Z,25.32
2022-11-22T01:10:32.034Z,25.31
2022-11-22T01:10:42.048Z,25.30
2022-11-22T01:10:52.042Z,25.31
2022-11-22T01:11:02.062Z,25.30
2022-11-22T01:11:12.092Z,25.30
2022-11-22T01:11:22.077Z,25.31
2022-11-22T01:11:32.079Z,25.31
2022-11-22T01:11:42.103Z,25.31
2022-11-22T01:11:52.110Z,25.32
2022-11-22T01:12:02.111Z,25.31
2022-11-22T01:12:12.123Z,25.32
2022-11-22T01:12:22.132Z,25.31
2022-11-22T01:12:32.217Z,25.31
2022-11-22T01:12:42.222Z,25.32
2022-11-22T01:12:52.598Z,25.31
2022-11-22T01:13:02.611Z,25.32
2022-11-22T01:13:12.618Z,25.32
2022-11-22T01:13:22.649Z,25.32
2022-11-22T01:13:32.774Z,25.31
2022-11-22T01:13:42.774Z,25.32
2022-11-22T01:13:52.778Z,25.32
2022-11-22T01:14:02.827Z,25.31
2022-11-22T01:14:12.815Z,25.30
2022-11-22T01:14:22.818Z,25.31
2022-11-22T01:14:33.067Z,25.31
2022-11-22T01:14:43.101Z,25.31
2022-11-22T01:14:53.102Z,25.31
2022-11-22T01:15:03.094Z,25.30
2022-11-22T01:15:13.122Z,25.30
2022-11-22T01:15:23.124Z,25.31
2022-11-22T01:15:33.124Z,25.32
2022-11-22T01:15:43.132Z,25.32
2022-11-22T01:15:53.146Z,25.32
2022-11-22T01:16:03.146Z,25.31
2022-11-22T01:16:13.538Z,25.31
2022-11-22T01:16:23.536Z,25.32
2022-11-22T01:16:33.539Z,25.32
2022-11-22T01:16:43.552Z,25.32
2022-11-22T01:16:53.548Z,25.32
2022-11-22T01:17:03.559Z,25.32
2022-11-22T01:17:13.677Z,25.32
2022-11-22T01:17:23.679Z,25.32
2022-11-22T01:17:33.684Z,25.32
2022-11-22T01:17:43.688Z,25.31
2022-11-22T01:17:53.944Z,25.30
2022-11-22T01:18:03.948Z,25.30
2022-11-22T01:18:14.072Z,25.29
2022-11-22T01:18:24.336Z,25.29
2022-11-22T01:18:34.349Z,25.29
2022-11-22T01:18:44.349Z,25.29
2022-11-22T01:18:54.362Z,25.29
2022-11-22T01:19:04.373Z,25.29
2022-11-22T01:19:14.396Z,25.29
2022-11-22T01:19:24.409Z,25.29
2022-11-22T01:19:34.513Z,25.30
2022-11-22T01:19:44.536Z,25.29
2022-11-22T01:19:54.556Z,25.29
2022-11-22T01:20:04.813Z,25.30
2022-11-22T01:20:14.938Z,25.30
2022-11-22T01:20:24.973Z,25.30
2022-11-22T01:20:35.204Z,25.30
2022-11-22T01:20:45.224Z,25.29
2022-11-22T01:20:55.336Z,25.29
2022-11-22T01:21:05.607Z,25.30
2022-11-22T01:21:15.599Z,25.30
2022-11-22T01:21:25.610Z,25.30
2022-11-22T01:21:35.619Z,25.30
2022-11-22T01:21:45.630Z,25.30
2022-11-22T01:21:55.639Z,25.30
2022-11-22T01:22:05.649Z,25.29
2022-11-22T01:22:15.660Z,25.30
2022-11-22T01:22:25.678Z,25.31
2022-11-22T01:22:35.811Z,25.31
2022-11-22T01:22:46.072Z,25.30
2022-11-22T01:22:56.075Z,25.31
2022-11-22T01:23:06.111Z,25.31
2022-11-22T01:23:16.121Z,25.30
2022-11-22T01:23:26.130Z,25.30
2022-11-22T01:23:36.143Z,25.30
2022-11-22T01:23:46.154Z,25.30
2022-11-22T01:23:56.158Z,25.30
2022-11-22T01:24:06.168Z,25.31
2022-11-22T01:24:16.163Z,25.31
2022-11-22T01:24:26.171Z,25.31
2022-11-22T01:24:36.173Z,25.31
2022-11-22T01:24:46.189Z,25.31
2022-11-22T01:24:56.186Z,25.32
2022-11-22T01:25:06.196Z,25.33
2022-11-22T01:25:16.224Z,25.32
2022-11-22T01:25:26.224Z,25.33
2022-11-22T01:25:36.605Z,25.33
2022-11-22T01:25:46.610Z,25.33
2022-11-22T01:25:56.726Z,25.33
2022-11-22T01:26:06.992Z,25.32
2022-11-22T01:26:17.119Z,25.33
2022-11-22T01:26:27.125Z,25.33
2022-11-22T01:26:37.394Z,25.33
2022-11-22T01:26:47.394Z,25.33
2022-11-22T01:26:57.408Z,25.32
2022-11-22T01:27:07.414Z,25.32
2022-11-22T01:27:17.434Z,25.33
2022-11-22T01:27:27.435Z,25.33
2022-11-22T01:27:37.438Z,25.33
2022-11-22T01:27:47.454Z,25.33
2022-11-22T01:27:57.470Z,25.34
2022-11-22T01:28:07.483Z,25.33
2022-11-22T01:28:17.485Z,25.33
2022-11-22T01:28:27.494Z,25.33
2022-11-22T01:28:37.513Z,25.33
2022-11-22T01:28:47.508Z,25.32
2022-11-22T01:28:57.516Z,25.33
2022-11-22T01:29:07.536Z,25.32
2022-11-22T01:29:17.545Z,25.33
2022-11-22T01:29:27.781Z,25.33
2022-11-22T01:29:37.618Z,25.32
2022-11-22T01:29:47.623Z,25.33
2022-11-22T01:29:57.626Z,25.32
2022-11-22T01:30:07.629Z,25.33
2022-11-22T01:30:17.639Z,25.33
2022-11-22T01:30:27.651Z,25.33
2022-11-22T01:30:37.660Z,25.33
2022-11-22T01:30:47.670Z,25.33
2022-11-22T01:30:57.802Z,25.33
2022-11-22T01:31:07.808Z,25.33
2022-11-22T01:31:18.072Z,25.32
2022-11-22T01:31:28.090Z,25.33
2022-11-22T01:31:38.083Z,25.32
2022-11-22T01:31:48.095Z,25.32
2022-11-22T01:31:58.114Z,25.31
2022-11-22T01:32:08.117Z,25.31
2022-11-22T01:32:18.121Z,25.31
2022-11-22T01:32:28.136Z,25.31
2022-11-22T01:32:38.150Z,25.31
2022-11-22T01:32:48.156Z,25.30
2022-11-22T01:32:58.171Z,25.31
2022-11-22T01:33:08.174Z,25.31
2022-11-22T01:33:18.188Z,25.31
2022-11-22T01:33:28.192Z,25.31
2022-11-22T01:33:38.190Z,25.31
2022-11-22T01:33:48.190Z,25.30
2022-11-22T01:33:58.311Z,25.30
2022-11-22T01:34:08.607Z,25.31
2022-11-22T01:34:18.604Z,25.31
2022-11-22T01:34:28.607Z,25.32
2022-11-22T01:34:38.985Z,25.32
2022-11-22T01:34:49.014Z,25.32
2022-11-22T01:34:59.143Z,25.31
2022-11-22T01:35:10.643Z,25.32
2022-11-22T01:35:19.423Z,25.32
2022-11-22T01:35:29.471Z,25.31
2022-11-22T01:35:39.439Z,25.31
2022-11-22T01:35:49.452Z,25.31
2022-11-22T01:35:59.449Z,25.31
2022-11-22T01:36:09.453Z,25.30
2022-11-22T01:36:19.478Z,25.31
2022-11-22T01:36:29.478Z,25.31
2022-11-22T01:36:39.486Z,25.31
2022-11-22T01:36:49.494Z,25.32
2022-11-22T01:36:59.515Z,25.32
2022-11-22T01:37:09.525Z,25.33
2022-11-22T01:37:19.527Z,25.32
2022-11-22T01:37:29.535Z,25.32
2022-11-22T01:37:39.563Z,25.32
2022-11-22T01:37:49.565Z,25.32
2022-11-22T01:37:59.569Z,25.32
2022-11-22T01:38:09.583Z,25.31
2022-11-22T01:38:19.585Z,25.31
2022-11-22T01:38:29.610Z,25.31
2022-11-22T01:38:39.610Z,25.31
2022-11-22T01:38:49.610Z,25.31
2022-11-22T01:38:59.731Z,25.30
2022-11-22T01:39:10.008Z,25.30
2022-11-22T01:39:20.006Z,25.29
2022-11-22T01:39:30.194Z,25.29
2022-11-22T01:39:40.038Z,25.29
2022-11-22T01:39:50.046Z,25.29
2022-11-22T01:40:00.186Z,25.29
2022-11-22T01:40:10.168Z,25.29
2022-11-22T01:40:20.302Z,25.30
2022-11-22T01:40:30.313Z,25.29
2022-11-22T01:40:40.328Z,25.30
2022-11-22T01:40:50.473Z,25.29
2022-11-22T01:41:00.482Z,25.30
2022-11-22T01:41:10.492Z,25.30
2022-11-22T01:41:20.505Z,25.30
2022-11-22T01:41:30.513Z,25.30
2022-11-22T01:41:40.527Z,25.30
2022-11-22T01:41:50.532Z,25.30
2022-11-22T01:42:00.541Z,25.30
2022-11-22T01:42:10.552Z,25.29
2022-11-22T01:42:20.549Z,25.30
2022-11-22T01:42:30.547Z,25.30
2022-11-22T01:42:40.684Z,25.30
2022-11-22T01:42:50.695Z,25.29
2022-11-22T01:43:00.705Z,25.30
2022-11-22T01:43:10.712Z,25.30
2022-11-22T01:43:20.834Z,25.29
2022-11-22T01:43:30.836Z,25.30
2022-11-22T01:43:40.962Z,25.30
2022-11-22T01:43:50.965Z,25.30
2022-11-22T01:44:01.090Z,25.30
2022-11-22T01:44:11.349Z,25.30
2022-11-22T01:44:21.356Z,25.30
2022-11-22T01:44:31.360Z,25.31
2022-11-22T01:44:41.372Z,25.30
2022-11-22T01:44:51.385Z,25.31
2022-11-22T01:45:01.398Z,25.31
2022-11-22T01:45:11.401Z,25.30
2022-11-22T01:45:21.411Z,25.31
2022-11-22T01:45:31.439Z,25.31
2022-11-22T01:45:41.492Z,25.31
2022-11-22T01:45:51.500Z,25.30
2022-11-22T01:46:01.501Z,25.30
2022-11-22T01:46:11.508Z,25.31
2022-11-22T01:46:21.507Z,25.31
2022-11-22T01:46:31.513Z,25.31
2022-11-22T01:46:41.649Z,25.31
2022-11-22T01:46:51.700Z,25.31
2022-11-22T01:47:01.964Z,25.31
2022-11-22T01:47:11.990Z,25.31
2022-11-22T01:47:22.006Z,25.30
2022-11-22T01:47:32.023Z,25.29
2022-11-22T01:47:42.029Z,25.30
2022-11-22T01:47:52.030Z,25.30
2022-11-22T01:48:02.147Z,25.30
2022-11-22T01:48:12.154Z,25.31
2022-11-22T01:48:22.157Z,25.31
2022-11-22T01:48:32.275Z,25.32
2022-11-22T01:48:42.410Z,25.32
2022-11-22T01:48:52.413Z,25.33
2022-11-22T01:49:02.545Z,25.33
2022-11-22T01:49:12.804Z,25.33
2022-11-22T01:49:22.810Z,25.33
2022-11-22T01:49:32.998Z,25.33
2022-11-22T01:49:42.822Z,25.34
2022-11-22T01:49:52.837Z,25.33
2022-11-22T01:50:02.875Z,25.33
2022-11-22T01:50:12.854Z,25.33
2022-11-22T01:50:22.978Z,25.33
2022-11-22T01:50:33.016Z,25.33
2022-11-22T01:50:42.990Z,25.33
2022-11-22T01:50:53.256Z,25.33
2022-11-22T01:51:03.257Z,25.33
2022-11-22T01:51:13.258Z,25.33
2022-11-22T01:51:23.268Z,25.33
2022-11-22T01:51:33.286Z,25.33
2022-11-22T01:51:43.294Z,25.33
2022-11-22T01:51:53.333Z,25.33
2022-11-22T01:52:03.343Z,25.33
2022-11-22T01:52:13.465Z,25.32
2022-11-22T01:52:23.465Z,25.33
2022-11-22T01:52:33.719Z,25.33
2022-11-22T01:52:43.721Z,25.34
2022-11-22T01:52:53.843Z,25.34
2022-11-22T01:53:04.108Z,25.33
2022-11-22T01:53:14.229Z,25.33
2022-11-22T01:53:24.237Z,25.32
2022-11-22T01:53:34.502Z,25.33
2022-11-22T01:53:44.507Z,25.33
2022-11-22T01:53:54.525Z,25.33
2022-11-22T01:54:04.523Z,25.34
2022-11-22T01:54:14.660Z,25.33
2022-11-22T01:54:24.656Z,25.33
2022-11-22T01:54:34.660Z,25.33
2022-11-22T01:54:44.668Z,25.33
2022-11-22T01:54:54.680Z,25.33
2022-11-22T01:55:04.699Z,25.33
2022-11-22T01:55:14.956Z,25.32
2022-11-22T01:55:24.955Z,25.32
2022-11-22T01:55:34.960Z,25.32
2022-11-22T01:55:44.964Z,25.32
2022-11-22T01:55:54.974Z,25.32
2022-11-22T01:56:04.986Z,25.32
2022-11-22T01:56:14.997Z,25.31
2022-11-22T01:56:25.015Z,25.31
2022-11-22T01:56:35.022Z,25.32
2022-11-22T01:56:45.027Z,25.32
2022-11-22T01:56:56.053Z,25.32
2022-11-22T01:57:05.143Z,25.30
2022-11-22T01:57:15.192Z,25.31
2022-11-22T01:57:25.254Z,25.30
2022-11-22T01:57:35.234Z,25.30
2022-11-22T01:57:45.258Z,25.29
2022-11-22T01:57:55.264Z,25.29
2022-11-22T01:58:05.272Z,25.29
2022-11-22T01:58:15.290Z,25.30
2022-11-22T01:58:25.295Z,25.29
2022-11-22T01:58:35.312Z,25.30
2022-11-22T01:58:45.322Z,25.29
2022-11-22T01:58:55.332Z,25.30
2022-11-22T01:59:05.362Z,25.30
2022-11-22T01:59:15.496Z,25.30
2022-11-22T01:59:25.754Z,25.30
2022-11-22T01:59:35.761Z,25.31
2022-11-22T01:59:45.763Z,25.31
2022-11-22T01:59:56.150Z,25.30
2022-11-22T02:00:06.146Z,25.30
2022-11-22T02:00:16.155Z,25.30
2022-11-22T02:00:26.152Z,25.30
2022-11-22T02:00:36.285Z,25.30
2022-11-22T02:00:46.391Z,25.31
2022-11-22T02:00:56.386Z,25.30
2022-11-22T02:01:06.489Z,25.30
2022-11-22T02:01:16.563Z,25.30
2022-11-22T02:01:26.645Z,25.31
2022-11-22T02:01:36.859Z,25.30
2022-11-22T02:01:46.867Z,25.30
2022-11-22T02:01:56.997Z,25.31
2022-11-22T02:02:07.268Z,25.31
2022-11-22T02:02:17.386Z,25.30
2022-11-22T02:02:27.392Z,25.30
2022-11-22T02:02:37.653Z,25.29
2022-11-22T02:02:47.668Z,25.30
2022-11-22T02:02:57.665Z,25.30
2022-11-22T02:03:07.660Z,25.31
2022-11-22T02:03:17.795Z,25.30
2022-11-22T02:03:27.800Z,25.30
2022-11-22T02:03:37.808Z,25.30
2022-11-22T02:03:47.821Z,25.29
2022-11-22T02:03:57.820Z,25.29
2022-11-22T02:04:07.833Z,25.29
2022-11-22T02:04:18.097Z,25.29
2022-11-22T02:04:28.098Z,25.29
2022-11-22T02:04:38.100Z,25.29
2022-11-22T02:04:48.130Z,25.28
2022-11-22T02:04:58.120Z,25.28
2022-11-22T02:05:08.129Z,25.29
2022-11-22T02:05:18.125Z,25.29
2022-11-22T02:05:28.130Z,25.29
2022-11-22T02:05:38.387Z,25.30
2022-11-22T02:05:48.370Z,25.30
2022-11-22T02:05:58.505Z,25.30
2022-11-22T02:06:08.505Z,25.31
2022-11-22T02:06:18.630Z,25.32
2022-11-22T02:06:28.890Z,25.32
2022-11-22T02:06:39.018Z,25.32
2022-11-22T02:06:49.030Z,25.32
2022-11-22T02:06:59.283Z,25.33
2022-11-22T02:07:09.335Z,25.33
2022-11-22T02:07:19.431Z,25.33
2022-11-22T02:07:29.474Z,25.33
2022-11-22T02:07:39.585Z,25.33
2022-11-22T02:07:49.736Z,25.33
2022-11-22T02:07:59.668Z,25.33
2022-11-22T02:08:09.669Z,25.32
2022-11-22T02:08:19.682Z,25.33
2022-11-22T02:08:29.694Z,25.32
2022-11-22T02:08:39.955Z,25.33
2022-11-22T02:08:49.966Z,25.32
2022-11-22T02:09:00.088Z,25.32
2022-11-22T02:09:10.348Z,25.32
2022-11-22T02:09:20.478Z,25.32